Flight Track Log - Related Links

Times and Time Zones

All times are in EDT time to prevent confusion due to time zone crossing. See the N983CA flight status page for this flight to view local times or setup timezone preferences in your user account.

Time Position Orientation Groundspeed Altitude Reporting Facility
EDT Latitude Longitude Course Direction KTS MPH feet Rate Location/Type
Thu 07:18:16 PM 37.6431 -122.3478 44° Northeast 173 199 1,300  Level Oakland Center
Thu 07:19:17 PM 37.6856 -122.2964 44° Northeast 218 251 3,100 2,098 Climbing Oakland Center
Thu 07:20:19 PM 37.7478 -122.2656 21° North 249 287 5,600 2,419 Climbing Oakland Center
Thu 07:21:21 PM 37.8000 -122.3325 315° West 268 308 8,100 2,585 Climbing Oakland Center
Thu 07:22:22 PM 37.8781 -122.3753 337° Northwest 282 325 10,900 2,311 Climbing Oakland Center
Thu 07:23:23 PM 37.9583 -122.3703 North 290 334 12,800 1,707 Climbing Oakland Center
Thu 07:24:25 PM 38.0417 -122.3769 356° North 304 350 14,400 1,463 Climbing Oakland Center
Thu 07:25:26 PM 38.1300 -122.3828 357° North 319 367 15,800 1,366 Climbing Oakland Center
Thu 07:26:28 PM 38.2219 -122.3886 357° North 331 381 17,200 1,317 Climbing Oakland Center
Thu 07:27:29 PM 38.3347 -122.3942 358° North 340 391 18,500 1,073 Climbing Oakland Center
Thu 07:28:31 PM 38.4319 -122.4000 357° North 349 402 19,400 976 Climbing Oakland Center
Thu 07:29:32 PM 38.5325 -122.4050 358° North 360 414 20,500 976 Climbing Oakland Center
Thu 07:30:34 PM 38.6331 -122.4111 357° North 362 417 21,400 1,024 Climbing Oakland Center
Thu 07:31:35 PM 38.7286 -122.4172 357° North 366 421 22,600 976 Climbing Oakland Center
Thu 07:32:37 PM 38.8322 -122.4233 357° North 369 425 23,400 823 Climbing Oakland Center
Thu 07:33:39 PM 38.9589 -122.4294 358° North 377 434 24,300 780 Climbing Oakland Center
Thu 07:34:40 PM 39.0650 -122.4364 357° North 379 436 25,000 732 Climbing Oakland Center
Thu 07:35:42 PM 39.1733 -122.4422 358° North 386 444 25,800 829 Climbing Oakland Center
Thu 07:36:43 PM 39.2819 -122.4497 357° North 388 447 26,700 829 Climbing Oakland Center
Thu 07:37:45 PM 39.3892 -122.4542 358° North 385 443 27,500 927 Climbing Oakland Center
Thu 07:38:46 PM 39.4975 -122.4594 358° North 386 444 28,600 976 Climbing Oakland Center
Thu 07:39:48 PM 39.6003 -122.4700 355° North 373 429 29,500 774 Climbing Oakland Center
Thu 07:40:50 PM 39.7036 -122.4747 358° North 370 426 30,200 585 Climbing Oakland Center
Thu 07:41:51 PM 39.8075 -122.4803 358° North 372 428 30,700 732 Climbing Oakland Center
Thu 07:42:53 PM 39.9322 -122.4881 357° North 371 427 31,700 634 Climbing Oakland Center
Thu 07:43:54 PM 40.0350 -122.4964 356° North 369 425 32,000 146 Climbing Oakland Center
Thu 07:44:56 PM 40.1447 -122.5019 358° North 383 441 32,000  Level Oakland Center
Thu 07:45:58 PM 40.2567 -122.5069 358° North 393 452 32,000  Level Oakland Center
Thu 07:46:59 PM 40.3686 -122.5136 357° North 397 457 32,000  Level Oakland Center
Thu 07:48:01 PM 40.4803 -122.5208 357° North 399 459 32,000  Level Oakland Center
Thu 07:49:02 PM 40.5942 -122.5261 358° North 408 470 32,000  Level Oakland Center
Thu 07:50:04 PM 40.7075 -122.5311 358° North 408 470 32,000  Level Oakland Center
Thu 07:51:05 PM 40.8206 -122.5375 358° North 407 468 32,000  Level Oakland Center
Thu 07:52:07 PM 40.9331 -122.5450 357° North 406 467 32,000  Level Oakland Center
Thu 07:53:08 PM 41.0675 -122.5531 357° North 404 465 32,000  Level Oakland Center
Thu 07:54:09 PM 41.1800 -122.5639 356° North 405 466 32,000  Level Oakland Center
Thu 07:55:11 PM 41.2922 -122.5697 358° North 405 466 32,000  Level Oakland Center
Thu 07:56:12 PM 41.3961 -122.5736 358° North 406 467 32,000  Level Oakland Center
Thu 07:56:29 PM 41.4175 -122.5786 350° North 404 465 32,000  Level Seattle Center
Thu 07:57:30 PM 41.5544 -122.5836 358° North 406 467 32,000  Level Seattle Center
Thu 07:58:31 PM 41.6675 -122.5908 357° North 405 466 32,000  Level Seattle Center
Thu 07:59:32 PM 41.7797 -122.5992 357° North 401 461 32,000  Level Seattle Center
Thu 08:00:33 PM 41.8925 -122.6053 358° North 402 463 32,000  Level Seattle Center
Thu 08:01:35 PM 42.0056 -122.6117 358° North 403 464 32,000  Level Seattle Center
Thu 08:02:36 PM 42.1186 -122.6194 357° North 402 463 32,000  Level Seattle Center
Thu 08:03:37 PM 42.2319 -122.6261 358° North 404 465 32,000  Level Seattle Center
Thu 08:04:38 PM 42.3453 -122.6325 358° North 403 464 32,000  Level Seattle Center
Thu 08:05:39 PM 42.4581 -122.6403 357° North 405 466 32,000  Level Seattle Center
Thu 08:06:40 PM 42.5703 -122.6489 357° North 403 464 32,000  Level Seattle Center
Thu 08:07:41 PM 42.6831 -122.6556 358° North 404 465 32,000  Level Seattle Center
Thu 08:08:42 PM 42.8053 -122.6658 356° North 403 464 32,000  Level Seattle Center
Thu 08:09:44 PM 42.9189 -122.6700 358° North 408 470 32,000  Level Seattle Center
Thu 08:10:45 PM 43.0314 -122.6756 358° North 406 467 32,000  Level Seattle Center
Thu 08:11:46 PM 43.1447 -122.6833 357° North 408 470 32,000  Level Seattle Center
Thu 08:12:47 PM 43.2578 -122.6919 357° North 410 472 32,000  Level Seattle Center
Thu 08:13:48 PM 43.3706 -122.6986 358° North 408 470 32,000  Level Seattle Center
Thu 08:14:49 PM 43.4839 -122.7056 357° North 409 471 32,000  Level Seattle Center
Thu 08:15:50 PM 43.6178 -122.7161 357° North 402 463 32,000  Level Seattle Center
Thu 08:16:51 PM 43.7292 -122.7217 358° North 401 461 32,000  Level Seattle Center
Thu 08:17:52 PM 43.8389 -122.7311 356° North 396 456 32,000  Level Seattle Center
Thu 08:18:53 PM 43.9472 -122.7358 358° North 391 450 32,000 -295 Level Seattle Center
Thu 08:19:54 PM 44.0544 -122.7444 357° North 388 447 31,400 -1,623 Descending Seattle Center
Thu 08:20:55 PM 44.1708 -122.7494 358° North 416 479 28,700 -2,656 Descending Seattle Center
Thu 08:21:56 PM 44.2875 -122.7367 North 423 487 26,000 -2,852 Descending Seattle Center
Thu 08:22:57 PM 44.4147 -122.7261 North 412 474 22,900 -2,852 Descending Seattle Center
Thu 08:23:58 PM 44.5289 -122.7144 North 414 476 20,200 -2,459 Descending Seattle Center
Thu 08:24:59 PM 44.6394 -122.7033 North 405 466 17,900 -2,512 Descending Seattle Center
Thu 08:26:07 PM 44.7617 -122.6931 North 371 427 14,800 -2,656 Descending Seattle Center
Thu 08:27:01 PM 44.8436 -122.6828 North 367 422 12,500 -2,127 Descending Seattle Center
Thu 08:27:26 PM 44.8908 -122.6775 North 357 411 12,000 -689 Descending Seattle Center
Thu 08:28:02 PM 44.9408 -122.6739 North 357 411 11,800 -787 Descending Seattle Center
Thu 08:28:27 PM 44.9847 -122.6703 North 328 377 11,200 -1,279 Descending Seattle Center
Thu 08:29:03 PM 45.0269 -122.6647 North 325 374 10,500 -1,433 Descending Seattle Center
Thu 08:29:34 PM 45.0719 -122.6625 North 263 303 9,600 -1,574 Descending Seattle Center
Thu 08:30:04 PM 45.0981 -122.6578 North 271 312 8,900 -1,745 Descending Seattle Center
Thu 08:30:29 PM 45.1394 -122.6536 North 260 299 8,000 -1,770 Descending Seattle Center
Thu 08:31:05 PM 45.1711 -122.6511 North 263 303 7,100 -1,869 Descending Seattle Center
Thu 08:31:30 PM 45.2122 -122.6486 North 267 307 6,100 -1,869 Descending Seattle Center
Thu 08:32:06 PM 45.2447 -122.6442 North 266 306 5,200 -1,180 Descending Seattle Center
Thu 08:32:31 PM 45.2883 -122.6394 North 265 305 4,900 -295 Descending Seattle Center
Thu 08:33:07 PM 45.3331 -122.6344 North 267 307 4,900  Level Seattle Center
Thu 08:33:32 PM 45.3631 -122.6336 North 266 306 4,900  Level Seattle Center
Thu 08:34:08 PM 45.4022 -122.6278 North 257 296 4,900 100 Level Seattle Center
Thu 08:34:32 PM 45.4283 -122.6253 North 214 246 5,000  Climbing Seattle Center
Thu 08:35:09 PM 45.4531 -122.5936 42° Northeast 231 266 4,900  Descending Seattle Center
Thu 08:35:33 PM 45.4450 -122.5569 107° East 228 262 5,000 -393 Climbing Seattle Center
Thu 08:36:10 PM 45.4322 -122.5181 115° Southeast 211 243 4,500 -984 Descending Seattle Center
Thu 08:36:34 PM 45.4231 -122.4922 117° Southeast 174 200 4,000 -1,279 Descending Seattle Center
Thu 08:37:11 PM 45.4119 -122.4542 113° Southeast 188 216 3,200 -1,279 Descending Seattle Center
Thu 08:37:35 PM 45.4053 -122.4256 108° East 180 207 2,700 -787 Descending Seattle Center
Thu 08:38:12 PM 45.4242 -122.3983 45° Northeast 185 213 2,400 -218 Descending Seattle Center
Thu 08:38:30 PM 45.4392 -122.3900 21° North 176 203 2,500  Climbing Seattle Center
Thu 08:39:13 PM 45.4694 -122.3683 27° Northeast 181 208 2,400  Descending Seattle Center
Thu 08:39:37 PM 45.4944 -122.3733 352° North 191 220 2,500  Climbing Seattle Center
Thu 08:40:14 PM 45.5147 -122.3889 332° Northwest 175 201 2,400 -100 Descending Seattle Center
Thu 08:40:37 PM 45.5253 -122.4192 296° West 174 200 2,400  Level Seattle Center

Login

Don't have an account? Register now (free) for customized features, flight alerts, and more!